createdAt,value
2022-08-25T00:00:13.034Z,20.83
2022-08-25T00:03:00.024Z,23.65
2022-08-25T00:05:33.352Z,16.73
2022-08-25T00:08:02.006Z,17.83
2022-08-25T00:10:30.028Z,20.20
2022-08-25T00:12:57.180Z,15.85
2022-08-25T00:15:24.479Z,21.73
2022-08-25T00:17:51.949Z,26.85
2022-08-25T00:20:19.290Z,17.30
2022-08-25T00:22:46.313Z,19.30
2022-08-25T00:25:13.528Z,19.27
2022-08-25T00:27:40.627Z,23.50
2022-08-25T00:30:08.571Z,23.90
2022-08-25T00:32:36.239Z,20.95
2022-08-25T00:35:04.722Z,27.23
2022-08-25T00:37:31.629Z,28.20
2022-08-25T00:39:59.750Z,22.00
2022-08-25T00:42:26.963Z,20.10
2022-08-25T00:44:54.094Z,21.17
2022-08-25T00:47:21.336Z,25.60
2022-08-25T00:49:54.317Z,25.90
2022-08-25T00:52:23.237Z,28.20
2022-08-25T00:54:54.442Z,29.17
2022-08-25T00:57:34.056Z,24.27
2022-08-25T01:00:15.594Z,19.48
2022-08-25T01:02:43.281Z,21.52
2022-08-25T01:05:10.631Z,21.50
2022-08-25T01:07:38.250Z,26.42
2022-08-25T01:10:08.053Z,23.35
2022-08-25T01:12:37.459Z,19.98
2022-08-25T01:15:06.266Z,23.08
2022-08-25T01:17:47.228Z,23.77
2022-08-25T01:20:15.802Z,19.98
2022-08-25T01:22:42.996Z,24.20
2022-08-25T01:25:29.435Z,22.17
2022-08-25T01:27:57.101Z,24.75
2022-08-25T01:30:25.138Z,24.27
2022-08-25T01:32:52.417Z,21.45
2022-08-25T01:35:19.580Z,32.05
2022-08-25T01:37:47.713Z,26.60
2022-08-25T01:40:15.026Z,24.52
2022-08-25T01:43:07.139Z,22.60
2022-08-25T01:45:35.160Z,33.95
2022-08-25T01:48:02.684Z,29.15
2022-08-25T01:50:29.792Z,21.23
2022-08-25T01:53:24.423Z,28.63
2022-08-25T01:55:51.927Z,30.48
2022-08-25T01:58:20.340Z,25.67
2022-08-25T02:00:52.059Z,32.35
2022-08-25T02:03:19.899Z,26.80
2022-08-25T02:05:48.078Z,25.17
2022-08-25T02:08:15.932Z,28.02
2022-08-25T02:10:43.487Z,26.48
2022-08-25T02:13:11.023Z,29.92
2022-08-25T02:15:43.349Z,30.33
2022-08-25T02:18:11.560Z,29.92
2022-08-25T02:20:39.435Z,24.25
2022-08-25T02:23:06.551Z,30.30
2022-08-25T02:25:34.109Z,27.65
2022-08-25T02:28:01.201Z,23.10
2022-08-25T02:30:28.322Z,30.02
2022-08-25T02:32:55.711Z,35.15
2022-08-25T02:35:22.714Z,23.05
2022-08-25T02:37:51.999Z,26.02
2022-08-25T02:40:22.275Z,21.30
2022-08-25T02:42:51.350Z,24.70
2022-08-25T02:45:18.709Z,30.55
2022-08-25T02:47:46.402Z,23.73
2022-08-25T02:50:13.566Z,24.08
2022-08-25T02:52:41.289Z,24.70
2022-08-25T02:55:14.242Z,27.08
2022-08-25T02:57:42.316Z,28.40
2022-08-25T03:00:15.437Z,25.50
2022-08-25T03:02:43.467Z,23.10
2022-08-25T03:05:12.118Z,25.42
2022-08-25T03:07:39.209Z,21.70
2022-08-25T03:10:14.016Z,19.20
2022-08-25T03:12:45.504Z,20.60
2022-08-25T03:15:18.321Z,27.52
2022-08-25T03:17:47.104Z,26.33
2022-08-25T03:20:14.479Z,29.05
2022-08-25T03:22:42.640Z,28.58
2022-08-25T03:25:29.154Z,28.00
2022-08-25T03:27:56.444Z,26.08
2022-08-25T03:30:23.933Z,30.58
2022-08-25T03:32:50.854Z,22.77
2022-08-25T03:35:18.371Z,30.20
2022-08-25T03:37:45.814Z,36.63
2022-08-25T03:40:16.360Z,29.92
2022-08-25T03:42:45.409Z,34.63
2022-08-25T03:45:14.798Z,22.52
2022-08-25T03:47:42.677Z,26.83
2022-08-25T03:50:11.649Z,28.83
2022-08-25T03:52:42.579Z,27.38
2022-08-25T03:55:13.730Z,34.67
2022-08-25T03:57:40.962Z,35.63
2022-08-25T04:00:09.971Z,28.58
2022-08-25T04:02:41.424Z,27.92
2022-08-25T04:05:09.876Z,27.27
2022-08-25T04:07:37.351Z,28.27
2022-08-25T04:10:06.369Z,31.45
2022-08-25T04:12:34.327Z,33.65
2022-08-25T04:15:01.601Z,31.73
2022-08-25T04:17:29.034Z,39.63
2022-08-25T04:19:57.354Z,35.40
2022-08-25T04:22:24.358Z,33.83
2022-08-25T04:24:51.390Z,31.25
2022-08-25T04:27:19.151Z,32.45
2022-08-25T04:29:46.199Z,32.50
2022-08-25T04:32:13.967Z,26.42
2022-08-25T04:34:41.946Z,27.25
2022-08-25T04:37:09.174Z,32.00
2022-08-25T04:39:36.387Z,27.05
2022-08-25T04:42:04.350Z,29.05
2022-08-25T04:44:32.021Z,27.00
2022-08-25T04:47:00.256Z,30.00
2022-08-25T04:49:28.835Z,30.65
2022-08-25T04:51:57.457Z,32.58
2022-08-25T04:54:24.954Z,35.15
2022-08-25T04:56:54.609Z,28.88
2022-08-25T04:59:29.561Z,31.00
2022-08-25T05:02:02.341Z,28.33
2022-08-25T05:04:30.563Z,29.73
2022-08-25T05:06:59.644Z,31.10
2022-08-25T05:09:27.643Z,33.40
2022-08-25T05:11:55.077Z,28.67
2022-08-25T05:14:25.603Z,29.95
2022-08-25T05:16:58.058Z,29.63
2022-08-25T05:19:26.517Z,23.10
2022-08-25T05:21:54.096Z,28.25
2022-08-25T05:24:22.118Z,28.52
2022-08-25T05:26:49.442Z,29.73
2022-08-25T05:29:17.532Z,28.92
2022-08-25T05:31:50.011Z,35.05
2022-08-25T05:34:19.055Z,23.75
2022-08-25T05:36:47.098Z,28.55
2022-08-25T05:39:14.663Z,21.85
2022-08-25T05:41:41.853Z,37.30
2022-08-25T05:44:09.583Z,35.08
2022-08-25T05:46:36.702Z,27.83
2022-08-25T05:49:03.822Z,31.52
2022-08-25T05:51:31.115Z,22.58
2022-08-25T05:53:58.067Z,27.27
2022-08-25T05:56:25.094Z,22.17
2022-08-25T05:58:52.225Z,26.70
2022-08-25T06:01:43.510Z,24.58
2022-08-25T06:04:17.745Z,24.95
2022-08-25T06:06:44.922Z,21.67
2022-08-25T06:09:12.632Z,17.80
2022-08-25T06:11:41.514Z,26.50
2022-08-25T06:14:10.424Z,22.85
2022-08-25T06:16:39.351Z,23.30
2022-08-25T06:19:08.959Z,30.77
2022-08-25T06:21:39.199Z,29.40
2022-08-25T06:24:08.547Z,32.33
2022-08-25T06:26:38.609Z,32.00
2022-08-25T06:29:05.634Z,22.95
2022-08-25T06:31:32.954Z,22.77
2022-08-25T06:34:00.463Z,24.48
2022-08-25T06:36:27.411Z,26.80
2022-08-25T06:38:54.618Z,20.77
2022-08-25T06:41:22.423Z,31.33
2022-08-25T06:43:54.128Z,27.75
2022-08-25T06:46:34.678Z,23.60
2022-08-25T06:49:08.218Z,26.40
2022-08-25T06:51:38.258Z,21.00
2022-08-25T06:54:06.867Z,25.83
2022-08-25T06:56:34.450Z,29.20
2022-08-25T06:59:06.384Z,23.65
2022-08-25T07:01:34.718Z,23.27
2022-08-25T07:04:10.044Z,22.08
2022-08-25T07:06:39.250Z,21.33
2022-08-25T07:09:10.909Z,23.23
2022-08-25T07:11:39.491Z,21.65
2022-08-25T07:14:09.274Z,17.83
2022-08-25T07:16:37.007Z,17.05
2022-08-25T07:19:05.389Z,19.05
2022-08-25T07:21:35.713Z,18.17
2022-08-25T07:24:12.038Z,19.75
2022-08-25T07:26:42.158Z,17.92
2022-08-25T07:29:14.032Z,22.20
2022-08-25T07:31:41.632Z,20.08
2022-08-25T07:34:28.492Z,15.20
2022-08-25T07:36:57.081Z,17.88
2022-08-25T07:39:25.204Z,18.58
2022-08-25T07:41:53.221Z,15.70
2022-08-25T07:44:22.695Z,25.83
2022-08-25T07:46:50.986Z,21.10
2022-08-25T07:49:23.386Z,14.90
2022-08-25T07:52:05.250Z,23.98
2022-08-25T07:54:37.940Z,18.35
2022-08-25T07:57:10.104Z,22.48
2022-08-25T07:59:41.965Z,21.40
2022-08-25T08:02:18.185Z,20.95
2022-08-25T08:04:51.391Z,19.02
2022-08-25T08:07:33.617Z,18.77
2022-08-25T08:13:02.531Z,24.15
2022-08-25T08:15:30.313Z,20.75
2022-08-25T08:17:59.168Z,24.85
2022-08-25T08:20:27.179Z,23.83
2022-08-25T08:22:55.569Z,19.27
2022-08-25T08:25:27.283Z,12.60
2022-08-25T08:27:56.535Z,23.67
2022-08-25T08:30:26.174Z,21.75
2022-08-25T08:33:11.845Z,17.08
2022-08-25T08:35:41.541Z,18.52
2022-08-25T08:38:14.594Z,23.88
2022-08-25T08:41:14.039Z,19.23
2022-08-25T08:43:43.759Z,21.08
2022-08-25T08:46:11.379Z,16.48
2022-08-25T08:49:01.981Z,15.65
2022-08-25T08:51:36.616Z,16.95
2022-08-25T08:54:15.479Z,16.27
2022-08-25T08:56:48.336Z,18.85
2022-08-25T08:59:31.260Z,20.77
2022-08-25T09:02:01.869Z,18.20
2022-08-25T09:04:39.484Z,21.27
2022-08-25T09:07:33.402Z,23.45
2022-08-25T09:10:01.455Z,17.50
2022-08-25T09:12:48.765Z,20.45
2022-08-25T09:15:24.834Z,24.38
2022-08-25T09:18:13.443Z,22.15
2022-08-25T09:20:54.174Z,19.95
2022-08-25T09:23:29.881Z,19.08
2022-08-25T09:26:15.940Z,22.85
2022-08-25T09:28:55.253Z,23.75
2022-08-25T09:31:29.879Z,22.02
2022-08-25T09:34:02.202Z,18.48
2022-08-25T09:36:34.259Z,15.65
2022-08-25T09:39:05.455Z,22.15
2022-08-25T09:41:52.114Z,14.32
2022-08-25T09:44:26.590Z,19.20
2022-08-25T09:47:04.457Z,19.10
2022-08-25T09:49:47.397Z,15.63
2022-08-25T09:52:31.993Z,19.45
2022-08-25T09:55:07.952Z,15.52
2022-08-25T09:57:47.937Z,17.98
2022-08-25T10:00:16.000Z,23.95
2022-08-25T10:02:45.265Z,20.63
2022-08-25T10:05:25.067Z,19.13
2022-08-25T10:07:58.840Z,22.48
2022-08-25T10:10:42.000Z,19.73
2022-08-25T10:13:22.853Z,17.50
2022-08-25T10:16:24.490Z,19.58
2022-08-25T10:19:09.240Z,18.60
2022-08-25T10:21:39.114Z,18.08
2022-08-25T10:24:09.445Z,16.80
2022-08-25T10:26:39.287Z,14.82
2022-08-25T10:29:12.148Z,13.77
2022-08-25T10:31:52.474Z,17.17
2022-08-25T10:34:44.632Z,16.23
2022-08-25T10:37:20.711Z,11.15
2022-08-25T10:40:03.586Z,19.40
2022-08-25T10:42:51.709Z,10.05
2022-08-25T10:45:44.578Z,20.00
2022-08-25T10:48:30.459Z,17.45
2022-08-25T10:51:22.545Z,14.07
2022-08-25T10:53:56.086Z,18.20
2022-08-25T10:56:29.227Z,16.50
2022-08-25T10:59:09.136Z,16.20
2022-08-25T11:01:55.106Z,15.45
2022-08-25T11:04:29.488Z,15.32
2022-08-25T11:07:07.863Z,13.82
2022-08-25T11:09:40.582Z,11.63
2022-08-25T11:12:16.222Z,17.13
2022-08-25T11:14:50.801Z,10.57
2022-08-25T11:17:39.750Z,14.93
2022-08-25T11:20:26.480Z,12.55
2022-08-25T11:23:06.532Z,17.48
2022-08-25T11:25:45.951Z,14.20
2022-08-25T11:28:22.324Z,11.43
2022-08-25T11:30:52.481Z,14.02
2022-08-25T11:33:20.280Z,17.40
2022-08-25T11:36:03.348Z,18.05
2022-08-25T11:38:49.038Z,12.35
2022-08-25T11:41:40.800Z,16.33
2022-08-25T11:44:17.043Z,12.88
2022-08-25T11:46:59.472Z,12.93
2022-08-25T11:49:39.710Z,17.98
2022-08-25T11:52:32.701Z,19.85
2022-08-25T11:55:27.964Z,15.55
2022-08-25T11:58:30.729Z,13.13
2022-08-25T12:01:00.641Z,14.25
2022-08-25T12:03:36.514Z,21.02
2022-08-25T12:06:29.146Z,14.30
2022-08-25T12:09:06.117Z,12.52
2022-08-25T12:11:39.830Z,10.63
2022-08-25T12:14:28.997Z,17.60
2022-08-25T12:17:00.375Z,20.42
2022-08-25T12:19:36.342Z,19.42
2022-08-25T12:22:04.100Z,16.13
2022-08-25T12:24:57.038Z,19.98
2022-08-25T12:27:39.131Z,21.80
2022-08-25T12:30:21.496Z,15.27
2022-08-25T12:32:49.025Z,23.63
2022-08-25T12:35:29.904Z,19.73
2022-08-25T12:38:42.464Z,21.77
2022-08-25T12:41:19.193Z,19.85
2022-08-25T12:43:49.356Z,24.85
2022-08-25T12:46:29.915Z,14.02
2022-08-25T12:49:02.881Z,21.02
2022-08-25T12:51:33.023Z,16.80
2022-08-25T12:54:36.999Z,17.08
2022-08-25T12:57:25.097Z,15.43
2022-08-25T12:59:59.609Z,21.50
2022-08-25T13:02:52.138Z,12.25
2022-08-25T13:05:25.534Z,19.83
2022-08-25T13:07:58.521Z,22.88
2022-08-25T13:10:56.179Z,19.65
2022-08-25T13:13:45.037Z,16.80
2022-08-25T13:16:24.568Z,20.17
2022-08-25T13:18:59.435Z,19.88
2022-08-25T13:21:38.992Z,18.08
2022-08-25T13:24:28.213Z,17.52
2022-08-25T13:27:08.913Z,27.35
2022-08-25T13:29:49.349Z,15.98
2022-08-25T13:32:26.471Z,22.25
2022-08-25T13:35:32.527Z,16.55
2022-08-25T13:38:14.865Z,26.90
2022-08-25T13:40:43.172Z,24.63
2022-08-25T13:43:14.938Z,33.53
2022-08-25T13:45:50.351Z,17.33
2022-08-25T13:48:34.741Z,29.75
2022-08-25T13:51:31.585Z,31.25
2022-08-25T13:54:02.846Z,27.13
2022-08-25T13:56:50.103Z,33.28
2022-08-25T13:59:33.190Z,30.23
2022-08-25T14:02:00.754Z,21.73
2022-08-25T14:04:32.369Z,19.27
2022-08-25T14:07:09.088Z,28.98
2022-08-25T14:10:00.154Z,26.30
2022-08-25T14:12:40.628Z,21.10
2022-08-25T14:15:16.711Z,25.15
2022-08-25T14:18:07.945Z,29.80
2022-08-25T14:20:37.626Z,21.33
2022-08-25T14:23:18.944Z,37.50
2022-08-25T14:25:48.850Z,49.45
2022-08-25T14:28:21.028Z,31.85
2022-08-25T14:31:14.878Z,33.70
2022-08-25T14:33:50.108Z,26.83
2022-08-25T14:36:20.716Z,33.92
2022-08-25T14:38:54.777Z,38.05
2022-08-25T14:41:24.533Z,35.60
2022-08-25T14:43:51.675Z,29.88
2022-08-25T14:46:28.625Z,29.38
2022-08-25T14:49:03.222Z,29.02
2022-08-25T14:51:32.667Z,36.70
2022-08-25T14:54:03.398Z,43.67
2022-08-25T14:56:32.199Z,28.08
2022-08-25T14:59:00.086Z,27.98
2022-08-25T15:01:30.107Z,41.63
2022-08-25T15:04:05.217Z,35.65
2022-08-25T15:06:36.223Z,36.25
2022-08-25T15:09:08.608Z,31.40
2022-08-25T15:11:36.832Z,29.73
2022-08-25T15:14:10.981Z,39.67
2022-08-25T15:16:43.997Z,36.47
2022-08-25T15:19:15.950Z,29.77
2022-08-25T15:21:45.301Z,46.47
2022-08-25T15:24:17.683Z,32.92
2022-08-25T15:26:56.127Z,38.15
2022-08-25T15:29:26.342Z,38.65
2022-08-25T15:31:53.648Z,42.95
2022-08-25T15:34:42.215Z,45.40
2022-08-25T15:37:15.227Z,45.47
2022-08-25T15:39:45.203Z,35.13
2022-08-25T15:42:12.935Z,38.25
2022-08-25T15:44:40.434Z,46.83
2022-08-25T15:47:12.514Z,46.38
2022-08-25T15:49:40.362Z,36.78
2022-08-25T15:52:07.398Z,38.42
2022-08-25T15:54:34.560Z,37.83
2022-08-25T15:57:03.552Z,34.33
2022-08-25T15:59:35.835Z,43.42
2022-08-25T16:02:14.904Z,33.65
2022-08-25T16:04:42.464Z,38.60
2022-08-25T16:07:09.979Z,42.10
2022-08-25T16:09:41.330Z,42.88
2022-08-25T16:12:08.878Z,34.33
2022-08-25T16:14:38.022Z,28.90
2022-08-25T16:17:06.575Z,30.25
2022-08-25T16:19:33.768Z,38.25
2022-08-25T16:22:03.447Z,34.38
2022-08-25T16:24:38.486Z,43.30
2022-08-25T16:27:10.936Z,35.42
2022-08-25T16:29:42.823Z,38.90
2022-08-25T16:32:13.396Z,39.03
2022-08-25T16:34:41.485Z,26.05
2022-08-25T16:37:09.198Z,41.33
2022-08-25T16:39:37.198Z,40.03
2022-08-25T16:42:07.084Z,36.38
2022-08-25T16:44:34.542Z,30.45
2022-08-25T16:47:01.879Z,39.88
2022-08-25T16:49:29.099Z,49.30
2022-08-25T16:51:57.202Z,40.85
2022-08-25T16:54:44.919Z,42.03
2022-08-25T16:57:13.017Z,39.92
2022-08-25T16:59:42.555Z,41.15
2022-08-25T17:02:11.176Z,28.00
2022-08-25T17:04:38.258Z,34.78
2022-08-25T17:07:05.631Z,26.45
2022-08-25T17:09:35.030Z,27.55
2022-08-25T17:12:02.129Z,31.33
2022-08-25T17:14:29.328Z,34.47
2022-08-25T17:16:56.451Z,38.25
2022-08-25T17:19:25.807Z,30.52
2022-08-25T17:21:54.814Z,31.08
2022-08-25T17:24:29.392Z,30.17
2022-08-25T17:26:59.645Z,37.95
2022-08-25T17:29:28.724Z,40.40
2022-08-25T17:31:55.696Z,38.63
2022-08-25T17:34:23.177Z,40.67
2022-08-25T17:36:51.417Z,30.08
2022-08-25T17:39:22.104Z,27.92
2022-08-25T17:41:50.652Z,35.97
2022-08-25T17:44:18.556Z,39.00
2022-08-25T17:46:47.023Z,35.03
2022-08-25T17:49:17.160Z,32.25
2022-08-25T17:51:45.180Z,56.35
2022-08-25T17:54:12.621Z,40.75
2022-08-25T17:56:40.223Z,28.67
2022-08-25T17:59:07.578Z,33.88
2022-08-25T18:01:40.563Z,26.48
2022-08-25T18:04:16.955Z,32.70
2022-08-25T18:06:45.931Z,30.08
2022-08-25T18:09:14.508Z,29.92
2022-08-25T18:11:42.620Z,28.45
2022-08-25T18:14:11.461Z,42.45
2022-08-25T18:16:38.961Z,39.17
2022-08-25T18:19:06.472Z,42.38
2022-08-25T18:21:36.915Z,29.90
2022-08-25T18:24:04.998Z,27.65
2022-08-25T18:26:32.288Z,38.10
2022-08-25T18:28:59.525Z,27.60
2022-08-25T18:31:26.837Z,29.85
2022-08-25T18:33:53.984Z,35.90
2022-08-25T18:36:21.316Z,33.85
2022-08-25T18:39:08.255Z,27.63
2022-08-25T18:41:40.073Z,30.75
2022-08-25T18:44:08.912Z,30.90
2022-08-25T18:46:39.964Z,33.13
2022-08-25T18:49:07.104Z,26.80
2022-08-25T18:51:36.146Z,32.25
2022-08-25T18:54:04.188Z,21.48
2022-08-25T18:56:31.362Z,26.88
2022-08-25T18:58:58.765Z,34.17
2022-08-25T19:01:25.917Z,34.78
2022-08-25T19:03:53.132Z,32.97
2022-08-25T19:06:20.844Z,28.17
2022-08-25T19:08:48.557Z,37.20
2022-08-25T19:11:16.674Z,26.17
2022-08-25T19:13:44.817Z,35.25
2022-08-25T19:16:20.460Z,21.08
2022-08-25T19:18:49.089Z,26.02
2022-08-25T19:21:22.867Z,34.35
2022-08-25T19:23:51.414Z,27.88
2022-08-25T19:26:19.718Z,35.88
2022-08-25T19:28:48.815Z,35.25
2022-08-25T19:31:27.483Z,33.88
2022-08-25T19:34:01.207Z,30.83
2022-08-25T19:36:29.969Z,31.35
2022-08-25T19:39:00.243Z,28.10
2022-08-25T19:41:28.950Z,27.80
2022-08-25T19:43:57.655Z,30.83
2022-08-25T19:46:35.410Z,30.70
2022-08-25T19:49:08.823Z,31.65
2022-08-25T19:51:38.930Z,25.98
2022-08-25T19:54:08.948Z,28.92
2022-08-25T19:56:53.793Z,31.77
2022-08-25T19:59:42.280Z,22.98
2022-08-25T20:02:15.738Z,23.08
2022-08-25T20:04:49.639Z,30.33
2022-08-25T20:07:19.886Z,26.83
2022-08-25T20:09:48.265Z,28.98
2022-08-25T20:14:49.848Z,28.67
2022-08-25T20:17:23.427Z,23.08
2022-08-25T20:19:55.532Z,26.42
2022-08-25T20:22:26.621Z,29.02
2022-08-25T20:25:00.339Z,32.08
2022-08-25T20:27:41.061Z,27.73
2022-08-25T20:30:16.769Z,27.42
2022-08-25T20:32:44.600Z,31.85
2022-08-25T20:35:14.408Z,34.10
2022-08-25T20:37:44.528Z,25.58
2022-08-25T20:40:14.391Z,27.95
2022-08-25T20:42:43.580Z,25.25
2022-08-25T20:45:14.124Z,30.40
2022-08-25T20:47:41.903Z,24.77
2022-08-25T20:50:10.166Z,23.27
2022-08-25T20:52:39.206Z,31.13
2022-08-25T20:55:11.186Z,25.38
2022-08-25T20:57:39.816Z,23.15
2022-08-25T21:00:08.556Z,30.92
2022-08-25T21:02:37.121Z,30.52
2022-08-25T21:05:04.807Z,27.23
2022-08-25T21:07:32.114Z,25.88
2022-08-25T21:10:07.094Z,28.63
2022-08-25T21:12:39.103Z,29.52
2022-08-25T21:15:07.323Z,33.35
2022-08-25T21:17:35.182Z,25.73
2022-08-25T21:20:02.541Z,34.97
2022-08-25T21:22:30.128Z,25.50
2022-08-25T21:24:57.170Z,37.08
2022-08-25T21:27:24.195Z,24.73
2022-08-25T21:29:55.237Z,31.30
2022-08-25T21:32:24.501Z,28.48
2022-08-25T21:34:57.635Z,27.90
2022-08-25T21:37:27.030Z,27.42
2022-08-25T21:39:54.363Z,20.02
2022-08-25T21:42:23.989Z,28.55
2022-08-25T21:44:52.742Z,36.25
2022-08-25T21:47:20.897Z,27.50
2022-08-25T21:49:49.744Z,24.17
2022-08-25T21:52:17.773Z,26.50
2022-08-25T21:54:45.109Z,29.83
2022-08-25T21:57:12.810Z,30.85
2022-08-25T21:59:43.518Z,33.70
2022-08-25T22:02:13.234Z,24.38
2022-08-25T22:04:42.105Z,23.55
2022-08-25T22:07:11.065Z,22.75
2022-08-25T22:09:40.073Z,24.60
2022-08-25T22:12:07.553Z,26.60
2022-08-25T22:14:36.287Z,24.33
2022-08-25T22:17:06.237Z,23.48
2022-08-25T22:19:36.251Z,21.95
2022-08-25T22:22:04.064Z,26.98
2022-08-25T22:24:31.153Z,18.60
2022-08-25T22:26:58.497Z,27.00
2022-08-25T22:29:27.020Z,29.00
2022-08-25T22:32:00.681Z,28.65
2022-08-25T22:34:34.554Z,22.88
2022-08-25T22:37:03.454Z,24.08
2022-08-25T22:39:31.439Z,27.58
2022-08-25T22:42:00.017Z,27.40
2022-08-25T22:44:27.144Z,22.02
2022-08-25T22:46:54.092Z,29.70
2022-08-25T22:49:21.950Z,22.98
2022-08-25T22:51:49.378Z,21.05
2022-08-25T22:54:16.769Z,21.70
2022-08-25T22:56:43.896Z,19.65
2022-08-25T22:59:13.477Z,19.55
2022-08-25T23:01:42.693Z,21.83
2022-08-25T23:04:10.787Z,17.42
2022-08-25T23:06:38.069Z,13.80
2022-08-25T23:09:07.635Z,24.42
2022-08-25T23:11:38.574Z,23.27
2022-08-25T23:14:10.152Z,21.30
2022-08-25T23:16:39.537Z,21.52
2022-08-25T23:19:10.880Z,17.17
2022-08-25T23:21:59.549Z,20.52
2022-08-25T23:24:29.234Z,19.23
2022-08-25T23:27:00.913Z,17.92
2022-08-25T23:29:28.797Z,24.92
2022-08-25T23:32:00.880Z,23.58
2022-08-25T23:34:29.272Z,19.08
2022-08-25T23:36:57.074Z,19.88
2022-08-25T23:39:24.679Z,23.98
2022-08-25T23:41:52.309Z,17.42
2022-08-25T23:44:20.728Z,21.23
2022-08-25T23:46:48.840Z,22.98
2022-08-25T23:49:21.869Z,21.17
2022-08-25T23:51:52.783Z,22.17
2022-08-25T23:54:21.214Z,25.55
2022-08-25T23:56:52.493Z,25.33
2022-08-25T23:59:24.411Z,28.52
